Scroll for more >

River gauges, storages, and weirs in the Murray–Darling Basin

Typesort descending Location River Water level Flow Volume Release Water temp Salinity Rainfall
River Gauge Rochester Campaspe 1.76 m 22/09/2017 12:45 114 ML/Day 22/09/2017 12:45 Not measured Not measured 11.2°C 22/09/2017 12:45 491.2 μS/cm 22/09/2017 12:45 0.0 mm 22/09/2017 9:00 Full data
River Gauge Swan Hill Murray 0.83 m 22/09/2017 12:45 3304 ML/Day 22/09/2017 12:45 Not measured Not measured 15.0°C 22/09/2017 12:45 115.8 μS/cm 22/09/2017 12:45 Not measured Full data
River Gauge Albury (Union Bridge) Murray 1.45 m 22/09/2017 13:15 Not measured Not measured Not measured 12.0°C 22/09/2017 13:15 60.7 μS/cm 22/09/2017 13:15 Not measured Full data
River Gauge Hinnomunjie Mitta 1.17 m 22/09/2017 12:45 1988 ML/Day 22/09/2017 12:45 Not measured Not measured 8.0°C 22/09/2017 12:45 19.6 μS/cm 22/09/2017 12:45 0.0 mm 22/09/2017 9:00 Full data
River Gauge Gulpa Creek Offtake Murray 2.48 m 22/09/2017 12:45 329 ML/Day 22/09/2017 12:45 Not measured Not measured Not measured Not measured Not measured Full data
River Gauge Echuca Wharf Murray 86.81 m 16/09/2017 17:45 Not measured Not measured Not measured Not measured Not measured Not measured Full data
River Gauge Wakool Canal Wakool 0.66 m 22/09/2017 12:45 Not measured Not measured 648.0 ML/d22/09/2017 8:00 Not measured Not measured Not measured Full data
River Gauge Wilcania Darling 0.31 m 22/09/2017 12:45 111 ML/Day 22/09/2017 12:45 Not measured Not measured 17.1°C 22/09/2017 12:45 391.9 μS/cm 22/09/2017 12:45 Not measured Full data
River Gauge Swan Hill Murray 0.83 m 22/09/2017 12:45 3304 ML/Day 22/09/2017 12:45 Not measured Not measured 15.0°C 22/09/2017 12:45 115.8 μS/cm 22/09/2017 12:45 Not measured Full data
River Gauge Corowa Murray 2.08 m 22/09/2017 13:15 8408 ML/Day 22/09/2017 13:15 Not measured Not measured 13.3°C 22/09/2017 13:15 50.3 μS/cm 22/09/2017 13:15 Not measured Full data
River Gauge Frenchman Creek Murray 27.39 m 22/09/2017 7:45 Not measured Not measured 7670.4 ML/d22/09/2017 7:45 Not measured Not measured Not measured Full data
River Gauge Echuca Wharf Murray 86.81 m 16/09/2017 17:45 Not measured Not measured Not measured Not measured Not measured Not measured Full data
River Gauge Biggara Murray 0.82 m 22/09/2017 13:15 1564 ML/Day 22/09/2017 13:15 Not measured Not measured 9.7°C 22/09/2017 13:15 38.8 μS/cm 22/09/2017 13:15 0.0 mm 22/09/2017 9:00 Full data
River Gauge Murray Bridge Murray 0.71 m 22/09/2017 12:45 Not measured Not measured Not measured 14.2°C 22/09/2017 12:45 472.8 μS/cm 22/09/2017 12:45 Not measured Full data
River Gauge Wakool Junction Murray 2.93 m 22/09/2017 12:45 7356 ML/Day 22/09/2017 12:45 Not measured Not measured 14.8°C 22/09/2017 12:45 110.8 μS/cm 22/09/2017 12:45 Not measured Full data
River Gauge Colemans Mitta 0.88 m 22/09/2017 13:15 206 ML/Day 22/09/2017 13:15 Not measured Not measured 10.9°C 22/09/2017 12:45 61.8 μS/cm 22/09/2017 12:45 Not measured Full data
River Gauge Morgan Downstream Murray Not measured Not measured Not measured 2651.2 ML/d22/09/2017 12:45 Not measured 386.0 μS/cm 22/09/2017 11:45 Not measured Full data
River Gauge Bringenbrong Bridge Murray 1.65 m 22/09/2017 13:15 4634 ML/Day 22/09/2017 13:15 Not measured Not measured Not measured Not measured Not measured Full data
River Gauge Weir 32 Upstream Darling 1.47 m 22/09/2017 12:45 395 ML/Day 22/09/2017 12:45 Not measured Not measured 15.8°C 22/09/2017 12:45 669.8 μS/cm 22/09/2017 12:45 Not measured Full data
River Gauge Lake Alexandrina Murray 0.8 m 22/09/2017 5:45 Not measured 1645 GL 22/09/2017 5:45 Not measured Not measured 574.4 μS/cm 22/09/2017 12:45 Not measured Full data
River Gauge Tallandoon Mitta 1.69 m 22/09/2017 12:45 1308 ML/Day 22/09/2017 12:45 Not measured Not measured 12.0°C 22/09/2017 12:45 30.7 μS/cm 22/09/2017 12:45 Not measured Full data
River Gauge Rufus River Murray 20.13 m 22/09/2017 7:45 Not measured Not measured 502.0 ML/d22/09/2017 7:45 Not measured 204.5 μS/cm 22/09/2017 11:45 Not measured Full data
River Gauge Pinegrove Murray 1.48 m 22/09/2017 13:15 600 ML/Day 22/09/2017 13:15 Not measured Not measured 10.9°C 22/09/2017 13:15 72.6 μS/cm 22/09/2017 13:15 0.0 mm 22/09/2017 9:00 Full data
River Gauge Burtundy Darling 0.79 m 22/09/2017 13:15 285 ML/Day 22/09/2017 13:15 Not measured Not measured 18.1°C 22/09/2017 13:15 700.7 μS/cm 22/09/2017 13:15 Not measured Full data
River Gauge Lake Albert Murray 0.84 m 22/09/2017 5:45 Not measured 286 GL 22/09/2017 5:45 Not measured Not measured Not measured Not measured Full data
River Gauge Yarrawonga Main Channel Murray 124.02 m 22/09/2017 12:45 Not measured Not measured 1801.0 ML/d22/09/2017 8:45 Not measured Not measured Not measured Full data
River Gauge Balranald Murrumbidgee 1.81 m 22/09/2017 12:45 1329 ML/Day 22/09/2017 12:45 Not measured Not measured 14.6°C 22/09/2017 12:45 247.2 μS/cm 22/09/2017 12:45 Not measured Full data
River Gauge Jingellic Murray 1.94 m 22/09/2017 12:45 6520 ML/Day 22/09/2017 12:45 Not measured Not measured 11.5°C 22/09/2017 12:45 42.8 μS/cm 22/09/2017 12:45 0.0 mm 22/09/2017 9:00 Full data
River Gauge McCoy Bridge Goulburn 3.27 m 22/09/2017 12:45 4401 ML/Day 22/09/2017 12:45 Not measured Not measured 13.9°C 22/09/2017 12:45 116.0 μS/cm 22/09/2017 12:45 Not measured Full data
River Gauge Tauwitchere Barrage Murray 0.85 m 22/09/2017 12:45 Not measured Not measured Not measured Not measured Not measured Not measured Full data
River Gauge Colignan Murray 2.55 m 22/09/2017 12:30 10261 ML/Day 22/09/2017 12:30 Not measured Not measured 15.9°C 22/09/2017 12:30 102.5 μS/cm 22/09/2017 12:30 Not measured Full data
River Gauge Mulwala Canal Murray Not measured Not measured Not measured 3868.9 ML/d22/09/2017 7:45 Not measured Not measured Not measured Full data
River Gauge Peechelba Ovens 128.76 m 22/09/2017 12:45 6382 ML/Day 22/09/2017 12:45 Not measured Not measured 11.7°C 22/09/2017 12:45 155.9 μS/cm 22/09/2017 12:45 Not measured Full data
River Gauge Torrumbarry Headworks Murray 85.52 m 22/09/2017 12:45 Not measured Not measured 3402.7 ML/d22/09/2017 12:45 Not measured Not measured Not measured Full data
River Gauge Bandiana Kiewa 2.26 m 22/09/2017 12:45 2484 ML/Day 22/09/2017 12:45 Not measured Not measured 11.0°C 22/09/2017 12:45 29.9 μS/cm 22/09/2017 12:45 Not measured Full data
River Gauge Mundoo Barrage Murray 0.86 m 22/09/2017 7:45 Not measured Not measured Not measured Not measured Not measured Not measured Full data
River Gauge Tocumwal Murray 2.17 m 22/09/2017 12:45 8311 ML/Day 22/09/2017 12:45 Not measured Not measured 14.3°C 22/09/2017 12:45 47.7 μS/cm 22/09/2017 12:45 Not measured Full data
River Gauge Edward Escape Wakool 0.08 m 22/09/2017 12:45 17 ML/Day 22/09/2017 12:45 Not measured Not measured 14.8°C 22/09/2017 12:45 25.1 μS/cm 22/09/2017 12:45 Not measured Full data
River Gauge Flow to South Australia Murray Not measured Not measured Not measured 5184.8 ML/d22/09/2017 7:45 Not measured Not measured Not measured Full data
River Gauge Stoney Crossing Murray 1.73 m 22/09/2017 12:45 1306 ML/Day 22/09/2017 12:45 Not measured 1307.0 ML/d22/09/2017 7:45 15.2°C 22/09/2017 12:45 135.6 μS/cm 22/09/2017 12:45 Not measured Full data
River Gauge Doctors Point Murray 2.49 m 22/09/2017 13:15 8813 ML/Day 22/09/2017 13:15 Not measured Not measured 12.3°C 22/09/2017 13:15 61.1 μS/cm 22/09/2017 13:15 Not measured Full data
River Gauge Kerang Loddon 0.41 m 22/09/2017 12:45 270 ML/Day 22/09/2017 12:45 Not measured Not measured 15.3°C 22/09/2017 12:45 213.5 μS/cm 22/09/2017 12:45 Not measured Full data
River Gauge Edward River Offtake Murray 2.41 m 22/09/2017 13:15 1573 ML/Day 22/09/2017 13:15 Not measured Not measured 14.6°C 22/09/2017 12:45 41.7 μS/cm 22/09/2017 12:45 Not measured Full data
Storage Dartmouth Dam Mitta 475.82 m 22/09/2017 13:15 Not measured 3223 GL 22/09/2017 13:15 Not measured Not measured Not measured Not measured Full data
Storage Menindee Lakes Darling Not measured Not measured 679 GL 22/09/2017 7:45 Not measured Not measured Not measured Not measured Full data
Storage Lake Victoria Murray 26.83 m 22/09/2017 12:45 Not measured 656 GL 22/09/2017 12:45 Not measured 13.7°C 22/09/2017 12:45 214.5 μS/cm 22/09/2017 12:45 Not measured Full data
Storage Hume Dam Murray 190.66 m 22/09/2017 13:15 Not measured 2742 GL 22/09/2017 13:15 6448.0 ML/d22/09/2017 8:00 Not measured Not measured 0.0 mm 22/09/2017 9:00 Full data
Weirs Steven's Weir Downstream Wakool 1.69 m 22/09/2017 12:45 1507 ML/Day 22/09/2017 12:45 Not measured Not measured 14.4°C 22/09/2017 12:45 43.1 μS/cm 22/09/2017 12:45 0.0 mm 21/09/2017 9:00 Full data
Weirs Lock 1 Downstream Murray 0.74 m 22/09/2017 12:45 Not measured Not measured 5462.6 ML/d22/09/2017 7:45 Not measured Not measured Not measured Full data
Weirs Lock 6 Downstream Murray 16.72 m 22/09/2017 12:45 Not measured Not measured Not measured Not measured Not measured Not measured Full data
Weirs Lock 2 Downstream Murray 3.3 m 22/09/2017 12:45 Not measured Not measured Not measured Not measured Not measured Not measured Full data
Weirs Lock 9 Upstream Murray 27.62 m 22/09/2017 12:45 Not measured Not measured Not measured 15.5°C 22/09/2017 12:45 157.5 μS/cm 22/09/2017 12:45 Not measured Full data
Weirs Lock 1 Upstream Murray 3.14 m 22/09/2017 12:45 Not measured Not measured Not measured 15.7°C 22/09/2017 12:45 399.0 μS/cm 22/09/2017 12:45 Not measured Full data
Weirs Lock 6 Upstream Murray 19.29 m 22/09/2017 12:45 Not measured Not measured Not measured 15.3°C 22/09/2017 12:45 229.8 μS/cm 22/09/2017 12:45 Not measured Full data
Weirs Lock 2 Upstream Murray 6.64 m 22/09/2017 12:45 Not measured Not measured Not measured 15.4°C 22/09/2017 12:45 347.1 μS/cm 22/09/2017 12:45 Not measured Full data
Weirs Lock 8 Upstream Murray 24.89 m 22/09/2017 12:45 Not measured Not measured Not measured 14.8°C 22/09/2017 12:45 163.0 μS/cm 22/09/2017 12:45 Not measured Full data
Weirs Lock 5 Downstream Murray 13.33 m 22/09/2017 12:45 Not measured Not measured Not measured Not measured Not measured Not measured Full data
Weirs Yarrawonga Weir Upstream Murray 124.78 m 22/09/2017 13:00 Not measured Not measured Not measured Not measured Not measured 0.0 mm 22/09/2017 9:00 Full data
Weirs Torrumbarry Weir Downstream Murray 1.36 m 22/09/2017 12:45 3301 ML/Day 22/09/2017 12:45 Not measured Not measured 13.7°C 22/09/2017 12:45 126.7 μS/cm 22/09/2017 12:45 Not measured Full data
Weirs Lock 5 Upstream Murray 16.74 m 22/09/2017 12:45 Not measured Not measured Not measured 15.2°C 22/09/2017 12:45 269.1 μS/cm 22/09/2017 12:45 Not measured Full data
Weirs Euston Weir Upstream Murray 47.92 m 22/09/2017 8:00 Not measured 41 GL 22/09/2017 7:45 Not measured Not measured Not measured 0.0 mm 21/09/2017 9:00 Full data
Weirs Yarrawonga Weir Downstream Murray 1.49 m 22/09/2017 13:15 8539 ML/Day 22/09/2017 13:15 Not measured Not measured 14.1°C 22/09/2017 13:15 55.5 μS/cm 22/09/2017 13:15 Not measured Full data
Weirs Torrumbarry Weir Downstream Murray 1.36 m 22/09/2017 12:45 3301 ML/Day 22/09/2017 12:45 Not measured Not measured 13.7°C 22/09/2017 12:45 126.7 μS/cm 22/09/2017 12:45 Not measured Full data
Weirs Lock 4 Downstream Murray 10.46 m 22/09/2017 12:45 Not measured Not measured Not measured Not measured Not measured Not measured Full data
Weirs Euston Weir Downstream Murray 43.69 m 22/09/2017 12:45 8893 ML/Day 22/09/2017 12:45 Not measured Not measured 14.4°C 22/09/2017 12:45 92.9 μS/cm 22/09/2017 12:45 Not measured Full data
Weirs Lock 7 Downstream Murray 20.09 m 22/09/2017 12:45 Not measured Not measured Not measured Not measured Not measured Not measured Full data
Weirs Torrumbarry Weir Upstream Murray 86.04 m 22/09/2017 8:45 Not measured 37 GL 22/09/2017 8:45 Not measured 13.3°C 22/09/2017 8:45 140.9 μS/cm 22/09/2017 8:45 0.0 mm 22/09/2017 9:00 Full data
Weirs Lock 4 Upstream Murray 13.22 m 22/09/2017 12:45 Not measured Not measured Not measured Not measured Not measured Not measured Full data
Weirs Lock 7 Upstream Murray 22.63 m 22/09/2017 12:45 Not measured Not measured Not measured 15.6°C 22/09/2017 12:45 165.1 μS/cm 22/09/2017 12:45 Not measured Full data
Weirs Lock 3 Downstream Murray 6.76 m 22/09/2017 12:45 Not measured Not measured Not measured Not measured Not measured Not measured Full data
Weirs Mildura Weir downstream Murray 31.14 m 22/09/2017 12:30 Not measured Not measured Not measured 15.7°C 22/09/2017 12:30 172.3 μS/cm 22/09/2017 12:30 Not measured Full data
Weirs Wentworth Weir Murray 28.06 m 22/09/2017 12:45 Not measured Not measured 11686.1 ML/d22/09/2017 7:45 Not measured 181.9 μS/cm 22/09/2017 7:45 0.0 mm 21/09/2017 9:00 Full data
Weirs Lock 3 Upstream Murray 9.83 m 22/09/2017 12:45 Not measured Not measured Not measured Not measured Not measured Not measured Full data
Weirs Lock 9 Downstream Murray 24.9 m 22/09/2017 12:45 Not measured Not measured Not measured Not measured Not measured Not measured Full data
Weirs Steven's Weir Upstream Wakool 4.53 m 22/09/2017 13:15 Not measured Not measured Not measured Not measured Not measured Not measured Full data